Time;durP1;ratioP1;P1;durP2;ratioP2;P2;SDS_P1;SDS_P2;PMS_P1;PMS_P2;Temp;Humidity;BMP_temperature;BMP_pressure;BME280_temperature;BME280_humidity;BME280_pressure;Samples;Min_cycle;Max_cycle;Signal;HPM_P1;HPM_P2
2021/07/23 00:00:37;;;;;;;3.47;2.09;;;;;;;;;;356486;150;864878;-58
2021/07/23 00:01:39;;;;;;;5.94;1.84;;;;;;;;;;354898;149;857295;-58
2021/07/23 00:02:41;;;;;;;4.81;2.11;;;;;;;;;;357769;150;858232;-58
2021/07/23 00:03:42;;;;;;;8.56;2.27;;;;;;;;;;358036;150;859220;-58
2021/07/23 00:04:45;;;;;;;7.59;1.89;;;;;;;;;;354545;150;859657;-59
2021/07/23 00:05:47;;;;;;;6.81;2.19;;;;;;;;;;353814;149;859390;-59
2021/07/23 00:06:49;;;;;;;5.87;1.73;;;;;;;;;;351712;150;859188;-59
2021/07/23 00:07:51;;;;;;;6.85;2.11;;;;;;;;;;353361;150;857338;-59
2021/07/23 00:08:52;;;;;;;5.06;2.31;;;;;;;;;;354728;149;857479;-58
2021/07/23 00:09:54;;;;;;;7.12;1.89;;;;;;;;;;357899;150;859769;-58
2021/07/23 00:10:56;;;;;;;5.39;1.90;;;;;;;;;;357424;150;858266;-59
2021/07/23 00:11:58;;;;;;;7.15;1.81;;;;;;;;;;355382;149;859389;-58
2021/07/23 00:13:00;;;;;;;10.01;2.22;;;;;;;;;;352592;149;864693;-59
2021/07/23 00:14:01;;;;;;;2.96;1.64;;;;;;;;;;352102;150;857143;-58
2021/07/23 00:15:03;;;;;;;7.47;2.06;;;;;;;;;;352270;150;864758;-58
2021/07/23 00:16:05;;;;;;;7.70;1.79;;;;;;;;;;355464;149;857209;-58
2021/07/23 00:17:06;;;;;;;4.32;1.92;;;;;;;;;;357921;150;857281;-58
2021/07/23 00:18:08;;;;;;;7.57;1.96;;;;;;;;;;356897;150;857259;-58
2021/07/23 00:19:09;;;;;;;5.63;1.83;;;;;;;;;;355260;150;857013;-59
2021/07/23 00:20:12;;;;;;;5.08;1.80;;;;;;;;;;357869;150;857461;-58
2021/07/23 00:21:14;;;;;;;7.44;2.02;;;;;;;;;;357868;150;865768;-58
2021/07/23 00:22:15;;;;;;;4.89;2.08;;;;;;;;;;355424;150;865058;-58
2021/07/23 00:23:17;;;;;;;3.69;1.96;;;;;;;;;;354244;149;856657;-59
2021/07/23 00:24:18;;;;;;;4.85;1.93;;;;;;;;;;355969;150;857256;-58
2021/07/23 00:25:20;;;;;;;4.28;1.84;;;;;;;;;;353525;150;857368;-58
2021/07/23 00:26:22;;;;;;;6.17;1.92;;;;;;;;;;355990;149;857122;-58
2021/07/23 00:27:24;;;;;;;4.91;1.94;;;;;;;;;;351869;152;857033;-58
2021/07/23 00:28:26;;;;;;;6.08;2.21;;;;;;;;;;353197;150;857751;-59
2021/07/23 00:29:27;;;;;;;4.35;1.90;;;;;;;;;;353632;149;858866;-58
2021/07/23 00:30:29;;;;;;;9.54;2.37;;;;;;;;;;354178;149;858075;-59
2021/07/23 00:31:31;;;;;;;5.14;2.00;;;;;;;;;;357974;150;858027;-58
2021/07/23 00:32:35;;;;;;;7.69;2.16;;;;;;;;;;357071;150;858829;-59
2021/07/23 00:33:37;;;;;;;2.81;1.76;;;;;;;;;;354829;149;864718;-59
2021/07/23 00:34:38;;;;;;;5.46;2.09;;;;;;;;;;356090;150;857302;-58
2021/07/23 00:35:40;;;;;;;6.31;2.55;;;;;;;;;;356178;150;858000;-59
2021/07/23 00:36:43;;;;;;;4.54;2.12;;;;;;;;;;356870;149;857119;-59
2021/07/23 00:37:44;;;;;;;5.27;2.20;;;;;;;;;;351608;149;857493;-59
2021/07/23 00:38:47;;;;;;;4.56;2.21;;;;;;;;;;351485;153;857175;-58
2021/07/23 00:39:48;;;;;;;5.71;1.99;;;;;;;;;;354038;149;857268;-59
2021/07/23 00:40:50;;;;;;;6.79;2.41;;;;;;;;;;353737;150;857145;-59
2021/07/23 00:41:51;;;;;;;4.50;2.17;;;;;;;;;;351619;153;864773;-58
2021/07/23 00:42:53;;;;;;;7.91;2.55;;;;;;;;;;353361;150;857357;-59
2021/07/23 00:43:55;;;;;;;8.15;1.98;;;;;;;;;;356008;150;857107;-58
2021/07/23 00:44:56;;;;;;;9.01;2.16;;;;;;;;;;357613;150;858999;-58
2021/07/23 00:45:58;;;;;;;4.62;2.13;;;;;;;;;;356875;150;858890;-60
2021/07/23 00:47:00;;;;;;;7.05;2.26;;;;;;;;;;355936;150;861115;-58
2021/07/23 00:48:02;;;;;;;5.21;2.39;;;;;;;;;;352713;150;858801;-58
2021/07/23 00:49:03;;;;;;;6.66;1.91;;;;;;;;;;349985;153;859439;-58
2021/07/23 00:50:05;;;;;;;5.07;2.09;;;;;;;;;;352107;150;863620;-59
2021/07/23 00:51:07;;;;;;;5.94;2.26;;;;;;;;;;352541;149;864066;-58
2021/07/23 00:52:09;;;;;;;4.77;2.35;;;;;;;;;;352217;150;863521;-59
2021/07/23 00:53:10;;;;;;;9.35;2.44;;;;;;;;;;353398;150;857492;-59
2021/07/23 00:54:12;;;;;;;4.19;2.22;;;;;;;;;;356644;149;856233;-59
2021/07/23 00:55:14;;;;;;;4.31;2.24;;;;;;;;;;350340;149;856758;-59
2021/07/23 00:56:17;;;;;;;7.26;2.36;;;;;;;;;;344854;153;864894;-59
2021/07/23 00:59:00;;;;;;;3.83;1.96;;;;;;;14.11;64.96;99788.04;372530;142;965202;-59
2021/07/23 01:00:02;;;;;;;5.83;2.01;;;;;;;13.99;64.95;99787.45;365446;147;857979;-59
2021/07/23 01:01:04;;;;;;;5.32;2.47;;;;;;;13.98;65.03;99785.74;363759;147;858548;-59
2021/07/23 01:02:06;;;;;;;5.95;2.26;;;;;;;13.97;64.97;99796.20;364706;146;857116;-59
2021/07/23 01:03:08;;;;;;;6.16;2.10;;;;;;;13.95;64.97;99793.63;365187;147;864825;-59
2021/07/23 01:04:09;;;;;;;4.22;2.47;;;;;;;13.93;65.09;99789.37;363434;147;864704;-59
2021/07/23 01:05:11;;;;;;;6.07;2.40;;;;;;;13.90;65.35;99790.28;364974;146;864874;-60
2021/07/23 01:06:13;;;;;;;8.97;2.59;;;;;;;13.91;65.46;99794.59;364077;147;865662;-58
2021/07/23 01:07:15;;;;;;;3.21;2.15;;;;;;;13.94;65.50;99789.31;364109;147;857225;-59
2021/07/23 01:08:17;;;;;;;4.57;2.03;;;;;;;13.97;65.52;99789.23;364864;147;865187;-59
2021/07/23 01:09:19;;;;;;;4.80;2.11;;;;;;;;;;359584;147;856890;-59
2021/07/23 01:10:22;;;;;;;8.72;2.57;;;;;;;;;;365437;147;859093;-58
2021/07/23 01:11:24;;;;;;;8.03;2.32;;;;;;;;;;363458;146;857198;-58
2021/07/23 01:12:26;;;;;;;3.01;2.07;;;;;;;;;;364095;147;865597;-59
2021/07/23 01:13:27;;;;;;;4.56;2.21;;;;;;;;;;366049;147;865240;-58
2021/07/23 01:14:29;;;;;;;3.99;2.20;;;;;;;;;;361200;147;865894;-58
2021/07/23 01:15:31;;;;;;;6.54;2.17;;;;;;;;;;363592;147;865277;-59
2021/07/23 01:16:34;;;;;;;5.61;2.46;;;;;;;;;;363653;147;857779;-59
2021/07/23 01:17:36;;;;;;;3.67;1.97;;;;;;;;;;364221;147;857305;-58
2021/07/23 01:18:37;;;;;;;4.99;2.34;;;;;;;;;;364285;147;866088;-58
2021/07/23 01:19:40;;;;;;;4.53;2.15;;;;;;;;;;365294;147;858612;-58
2021/07/23 01:20:44;;;;;;;3.94;2.11;;;;;;;;;;364709;147;858566;-58
2021/07/23 01:21:47;;;;;;;7.17;2.37;;;;;;;;;;364676;146;859644;-58
2021/07/23 01:22:49;;;;;;;4.11;2.14;;;;;;;;;;365699;146;860271;-58
2021/07/23 01:23:51;;;;;;;7.54;2.35;;;;;;;;;;365869;147;857245;-59
2021/07/23 01:24:52;;;;;;;8.87;2.73;;;;;;;;;;363407;147;865630;-58
2021/07/23 01:25:54;;;;;;;5.47;2.47;;;;;;;;;;364531;146;858989;-59
2021/07/23 01:26:55;;;;;;;4.59;2.41;;;;;;;;;;361675;147;858790;-58
2021/07/23 01:27:57;;;;;;;12.86;2.41;;;;;;;;;;358170;147;865275;-61
2021/07/23 01:28:58;;;;;;;6.19;2.10;;;;;;;;;;363983;146;857165;-59
2021/07/23 01:30:07;;;;;;;4.19;2.09;;;;;;;;;;365924;147;857239;-58
2021/07/23 01:31:09;;;;;;;6.17;2.44;;;;;;;;;;365967;147;857673;-58
2021/07/23 01:32:11;;;;;;;4.21;2.67;;;;;;;;;;364564;146;859717;-58
2021/07/23 01:33:12;;;;;;;5.37;2.15;;;;;;;;;;365898;146;857407;-58
2021/07/23 01:34:14;;;;;;;6.05;2.19;;;;;;;;;;365693;146;859115;-58
2021/07/23 01:35:15;;;;;;;5.24;2.22;;;;;;;;;;364065;147;858287;-59
2021/07/23 01:36:17;;;;;;;4.27;2.18;;;;;;;;;;365688;146;859006;-58
2021/07/23 01:37:19;;;;;;;3.56;1.97;;;;;;;;;;365188;147;858757;-58
2021/07/23 01:38:22;;;;;;;4.15;2.30;;;;;;;;;;362500;147;857209;-59
2021/07/23 01:39:24;;;;;;;8.28;2.22;;;;;;;;;;363392;146;857212;-58
2021/07/23 01:40:26;;;;;;;4.83;2.28;;;;;;;;;;365177;146;858055;-59
2021/07/23 01:41:27;;;;;;;5.69;2.14;;;;;;;;;;364622;147;858241;-58
2021/07/23 01:42:29;;;;;;;2.96;2.26;;;;;;;;;;362002;147;865331;-59
2021/07/23 01:43:31;;;;;;;6.69;2.19;;;;;;;;;;365792;146;857147;-58
2021/07/23 01:44:33;;;;;;;4.64;2.21;;;;;;;;;;365232;147;857336;-58
2021/07/23 01:45:34;;;;;;;3.75;2.10;;;;;;;;;;364931;147;867107;-58
2021/07/23 01:46:37;;;;;;;4.25;2.07;;;;;;;;;;362034;147;859490;-58
2021/07/23 01:47:39;;;;;;;6.11;2.43;;;;;;;;;;365170;147;857727;-58
2021/07/23 01:48:41;;;;;;;9.21;2.29;;;;;;;;;;365842;147;860692;-58
2021/07/23 01:49:42;;;;;;;2.84;2.10;;;;;;;;;;363382;147;859641;-59
2021/07/23 01:50:45;;;;;;;8.27;2.21;;;;;;;;;;363979;146;859158;-59
2021/07/23 01:51:46;;;;;;;7.04;2.36;;;;;;;;;;364694;147;858491;-59
2021/07/23 01:52:48;;;;;;;4.11;2.09;;;;;;;;;;364251;147;864862;-58
2021/07/23 01:53:50;;;;;;;7.82;2.64;;;;;;;;;;364235;146;859126;-59
2021/07/23 01:54:51;;;;;;;4.34;2.23;;;;;;;;;;364611;147;857988;-58
2021/07/23 01:55:53;;;;;;;4.06;2.21;;;;;;;;;;365634;145;857201;-58
2021/07/23 01:56:54;;;;;;;3.80;2.15;;;;;;;;;;365455;147;858410;-58
2021/07/23 01:57:56;;;;;;;4.21;2.42;;;;;;;;;;365101;146;857650;-58
2021/07/23 01:58:58;;;;;;;4.56;2.79;;;;;;;;;;365984;147;857360;-58
2021/07/23 01:59:59;;;;;;;7.11;2.52;;;;;;;;;;365028;147;865185;-58
2021/07/23 02:01:01;;;;;;;5.05;2.51;;;;;;;;;;366378;145;857288;-58
2021/07/23 02:02:03;;;;;;;5.94;2.30;;;;;;;;;;365969;147;864737;-58
2021/07/23 02:03:04;;;;;;;7.53;2.29;;;;;;;;;;364772;147;859403;-59
2021/07/23 02:04:06;;;;;;;4.76;2.34;;;;;;;;;;363947;146;857273;-58
2021/07/23 02:05:08;;;;;;;4.29;2.34;;;;;;;;;;364890;147;857274;-58
2021/07/23 02:06:10;;;;;;;4.77;2.21;;;;;;;;;;363745;147;857665;-61
2021/07/23 02:07:11;;;;;;;7.46;2.86;;;;;;;;;;363883;147;866964;-58
2021/07/23 02:08:13;;;;;;;3.13;2.56;;;;;;;;;;365596;147;857834;-58
2021/07/23 02:09:15;;;;;;;4.09;2.34;;;;;;;;;;364260;147;857364;-58
2021/07/23 02:10:18;;;;;;;3.64;2.37;;;;;;;;;;365546;147;857354;-58
2021/07/23 02:11:20;;;;;;;4.76;2.64;;;;;;;;;;365611;146;857167;-61
2021/07/23 02:12:21;;;;;;;4.06;2.24;;;;;;;;;;366085;147;864916;-60
2021/07/23 02:13:23;;;;;;;6.79;2.37;;;;;;;;;;366157;147;857180;-59
2021/07/23 02:14:28;;;;;;;4.34;2.52;;;;;;;;;;364530;146;857060;-57
2021/07/23 02:15:28;;;;;;;6.44;2.32;;;;;;;;;;365458;146;857249;-59
2021/07/23 02:16:31;;;;;;;5.35;2.66;;;;;;;;;;366031;147;860283;-59
2021/07/23 02:17:32;;;;;;;4.27;2.58;;;;;;;;;;364226;146;859911;-58
2021/07/23 02:18:34;;;;;;;4.41;2.15;;;;;;;;;;364200;146;864757;-58
2021/07/23 02:19:36;;;;;;;4.71;2.53;;;;;;;;;;365944;147;857295;-59
2021/07/23 02:20:38;;;;;;;4.65;2.57;;;;;;;;;;360990;147;857288;-59
2021/07/23 02:21:40;;;;;;;4.06;2.13;;;;;;;;;;364858;146;864846;-58
2021/07/23 02:22:42;;;;;;;3.99;2.49;;;;;;;;;;365969;147;857197;-58
2021/07/23 02:23:43;;;;;;;4.49;2.36;;;;;;;;;;366076;147;857552;-58
2021/07/23 02:24:45;;;;;;;4.42;2.49;;;;;;;;;;364595;146;857683;-58
2021/07/23 02:25:46;;;;;;;3.11;2.21;;;;;;;;;;362979;146;857288;-58
2021/07/23 02:26:50;;;;;;;6.22;2.50;;;;;;;;;;359134;148;859228;-58
2021/07/23 02:27:51;;;;;;;3.94;2.77;;;;;;;;;;359949;147;857154;-58
2021/07/23 02:28:53;;;;;;;5.34;2.74;;;;;;;;;;365275;146;866202;-58
2021/07/23 02:29:54;;;;;;;3.63;2.30;;;;;;;;;;365140;147;858306;-59
2021/07/23 02:30:56;;;;;;;5.53;2.35;;;;;;;;;;361262;147;857289;-59
2021/07/23 02:31:58;;;;;;;3.76;2.29;;;;;;;;;;365271;147;857401;-59
2021/07/23 02:33:00;;;;;;;7.09;2.66;;;;;;;;;;363142;146;858721;-59
2021/07/23 02:34:01;;;;;;;5.96;2.29;;;;;;;;;;364000;147;859015;-58
2021/07/23 02:35:03;;;;;;;3.55;2.20;;;;;;;;;;364354;147;859753;-59
2021/07/23 02:36:05;;;;;;;4.27;2.11;;;;;;;;;;364110;146;857453;-58
2021/07/23 02:37:07;;;;;;;6.61;2.17;;;;;;;;;;362085;147;858685;-59
2021/07/23 02:38:08;;;;;;;3.89;2.32;;;;;;;;;;360193;147;864778;-59
2021/07/23 02:39:10;;;;;;;7.71;2.78;;;;;;;;;;364978;146;857707;-59
2021/07/23 02:40:13;;;;;;;5.83;2.73;;;;;;;;;;363779;147;857339;-59
2021/07/23 02:41:15;;;;;;;5.14;2.31;;;;;;;;;;359834;147;857935;-59
2021/07/23 02:42:16;;;;;;;3.87;2.26;;;;;;;;;;363781;145;865543;-58
2021/07/23 02:43:18;;;;;;;6.54;2.44;;;;;;;;;;363907;146;858638;-58
2021/07/23 02:44:20;;;;;;;4.41;2.13;;;;;;;;;;364750;146;857449;-59
2021/07/23 02:45:21;;;;;;;4.37;2.28;;;;;;;;;;365977;147;857144;-59
2021/07/23 02:46:23;;;;;;;5.78;2.25;;;;;;;;;;364162;146;857163;-59
2021/07/23 02:47:25;;;;;;;5.81;2.29;;;;;;;;;;358647;150;857152;-59
2021/07/23 02:48:26;;;;;;;5.15;2.34;;;;;;;;;;358212;150;857203;-59
2021/07/23 02:49:28;;;;;;;3.69;2.30;;;;;;;;;;365177;145;857170;-58
2021/07/23 02:50:30;;;;;;;8.43;2.28;;;;;;;;;;365879;146;857201;-59
2021/07/23 02:51:31;;;;;;;4.01;2.66;;;;;;;;;;365409;147;857151;-59
2021/07/23 02:52:33;;;;;;;5.08;3.03;;;;;;;;;;363298;147;865497;-59
2021/07/23 02:53:35;;;;;;;4.21;2.51;;;;;;;;;;365028;146;857754;-59
2021/07/23 02:54:36;;;;;;;2.86;2.37;;;;;;;;;;359381;150;857242;-59
2021/07/23 02:55:38;;;;;;;4.72;2.44;;;;;;;;;;363780;146;857166;-59
2021/07/23 02:56:40;;;;;;;6.39;2.39;;;;;;;;;;366376;145;866437;-59
2021/07/23 02:57:42;;;;;;;3.60;2.32;;;;;;;;;;365868;146;857199;-59
2021/07/23 02:58:46;;;;;;;3.44;2.21;;;;;;;;;;365653;147;857461;-59
2021/07/23 02:59:47;;;;;;;4.75;2.37;;;;;;;;;;357786;147;859335;-58
2021/07/23 03:00:49;;;;;;;6.77;2.49;;;;;;;;;;357186;149;857226;-59
2021/07/23 03:01:50;;;;;;;11.49;2.81;;;;;;;;;;356999;150;858821;-59
2021/07/23 03:02:52;;;;;;;6.26;2.67;;;;;;;;;;357989;149;860651;-59
2021/07/23 03:03:53;;;;;;;5.44;2.97;;;;;;;;;;358365;149;858921;-59
2021/07/23 03:04:55;;;;;;;5.29;2.71;;;;;;;;;;358021;149;858794;-59
2021/07/23 03:05:57;;;;;;;4.00;2.35;;;;;;;;;;353668;150;857913;-58
2021/07/23 03:06:58;;;;;;;5.95;2.54;;;;;;;;;;358226;149;857297;-58
2021/07/23 03:08:00;;;;;;;5.28;2.53;;;;;;;;;;355583;149;857251;-58
2021/07/23 03:09:01;;;;;;;6.11;2.87;;;;;;;;;;355025;150;857667;-58
2021/07/23 03:10:03;;;;;;;3.61;2.62;;;;;;;;;;356903;149;857330;-58
2021/07/23 03:11:05;;;;;;;5.33;2.69;;;;;;;;;;358908;149;864739;-58
2021/07/23 03:12:06;;;;;;;3.39;2.65;;;;;;;;;;359284;150;857182;-57
2021/07/23 03:13:08;;;;;;;3.90;2.65;;;;;;;;;;358713;149;857236;-59
2021/07/23 03:14:10;;;;;;;6.74;2.69;;;;;;;;;;357715;149;857205;-60
2021/07/23 03:15:11;;;;;;;4.11;2.74;;;;;;;;;;359233;150;866766;-59
2021/07/23 03:16:15;;;;;;;5.56;2.80;;;;;;;;;;362205;144;856716;-59
2021/07/23 03:17:17;;;;;;;6.67;2.85;;;;;;;;;;364489;145;858856;-59
2021/07/23 03:18:18;;;;;;;6.03;2.57;;;;;;;;;;364505;146;857250;-59
2021/07/23 03:19:20;;;;;;;6.55;3.14;;;;;;;;;;364999;145;857245;-60
2021/07/23 03:20:23;;;;;;;4.95;2.47;;;;;;;;;;368420;145;857098;-59
2021/07/23 03:21:24;;;;;;;4.94;2.64;;;;;;;;;;363500;146;857166;-59
2021/07/23 03:22:27;;;;;;;7.80;3.11;;;;;;;;;;364571;147;857244;-58
2021/07/23 03:23:29;;;;;;;6.81;2.93;;;;;;;;;;364698;145;856976;-59
2021/07/23 03:24:32;;;;;;;5.54;2.92;;;;;;;;;;363191;147;857144;-59
2021/07/23 03:25:34;;;;;;;5.61;2.93;;;;;;;;;;362375;146;858814;-59
2021/07/23 03:26:37;;;;;;;4.78;2.81;;;;;;;;;;365784;146;858777;-58
2021/07/23 03:27:39;;;;;;;7.91;2.83;;;;;;;;;;366980;145;857364;-59
2021/07/23 03:28:40;;;;;;;5.54;2.49;;;;;;;;;;363813;145;857499;-58
2021/07/23 03:29:42;;;;;;;6.08;2.81;;;;;;;;;;366540;145;857269;-58
2021/07/23 03:30:44;;;;;;;7.35;2.96;;;;;;;;;;365168;145;857156;-58
2021/07/23 03:31:46;;;;;;;6.75;2.74;;;;;;;;;;364705;145;864908;-61
2021/07/23 03:32:48;;;;;;;4.34;2.70;;;;;;;;;;362908;145;857228;-59
2021/07/23 03:33:50;;;;;;;6.03;3.16;;;;;;;;;;368572;145;857163;-59
2021/07/23 03:34:52;;;;;;;8.41;2.87;;;;;;;;;;363896;145;858942;-59
2021/07/23 03:35:53;;;;;;;3.91;2.61;;;;;;;;;;364152;146;859270;-59
2021/07/23 03:36:55;;;;;;;5.73;3.04;;;;;;;;;;363387;145;864666;-59
2021/07/23 03:37:56;;;;;;;6.63;2.78;;;;;;;;;;363271;146;864905;-59
2021/07/23 03:38:58;;;;;;;4.61;2.94;;;;;;;;;;362945;146;857302;-59
2021/07/23 03:39:59;;;;;;;8.24;3.09;;;;;;;;;;363904;148;858882;-59
2021/07/23 03:41:01;;;;;;;6.03;2.83;;;;;;;;;;364386;145;858854;-59
2021/07/23 03:42:03;;;;;;;3.07;2.20;;;;;;;;;;364752;145;858212;-58
2021/07/23 03:43:05;;;;;;;4.20;2.86;;;;;;;;;;364103;146;858339;-59
2021/07/23 03:44:06;;;;;;;7.95;3.40;;;;;;;;;;362359;147;858770;-58
2021/07/23 03:45:08;;;;;;;5.04;2.93;;;;;;;;;;361537;146;857317;-58
2021/07/23 03:46:11;;;;;;;5.06;2.59;;;;;;;;;;363943;146;857198;-58
2021/07/23 03:47:15;;;;;;;7.42;2.86;;;;;;;;;;364235;145;864824;-58
2021/07/23 03:48:17;;;;;;;6.53;2.61;;;;;;;;;;364899;145;867119;-59
2021/07/23 03:49:18;;;;;;;6.19;2.56;;;;;;;;;;362998;146;857525;-60
2021/07/23 03:50:20;;;;;;;3.73;2.61;;;;;;;;;;363949;148;864913;-59
2021/07/23 03:51:22;;;;;;;4.96;2.66;;;;;;;;;;364268;145;858980;-60
2021/07/23 03:52:23;;;;;;;4.21;2.39;;;;;;;;;;364257;145;856225;-60
2021/07/23 03:53:26;;;;;;;7.54;2.68;;;;;;;;;;364200;145;863541;-60
2021/07/23 03:54:28;;;;;;;3.74;2.49;;;;;;;;;;363861;147;856282;-59
2021/07/23 03:55:29;;;;;;;9.21;3.29;;;;;;;;;;360723;146;863497;-61
2021/07/23 04:00:17;;;;;;;4.85;2.66;;;;;;;15.54;66.74;99794.58;367455;144;965479;-60
2021/07/23 04:01:19;;;;;;;6.54;2.76;;;;;;;15.45;66.37;99795.70;364997;147;857359;-59
2021/07/23 04:02:20;;;;;;;6.92;2.70;;;;;;;15.46;66.43;99802.63;363850;146;857425;-59
2021/07/23 04:03:22;;;;;;;4.21;2.22;;;;;;;15.46;66.43;99802.63;363049;146;857237;-59
2021/07/23 04:04:24;;;;;;;5.50;2.54;;;;;;;15.53;66.25;99795.48;362582;147;864794;-59
2021/07/23 04:05:25;;;;;;;6.43;2.30;;;;;;;15.56;66.06;99804.05;365738;147;864703;-59
2021/07/23 04:06:28;;;;;;;5.06;2.29;;;;;;;15.60;66.19;99797.84;364080;146;865525;-59
2021/07/23 04:07:31;;;;;;;4.30;2.50;;;;;;;15.68;66.03;99796.74;364639;147;865599;-61
2021/07/23 04:08:34;;;;;;;6.05;2.16;;;;;;;;;;363480;147;865056;-60
2021/07/23 04:09:35;;;;;;;8.89;2.19;;;;;;;;;;364787;146;865157;-58
2021/07/23 04:10:37;;;;;;;6.21;2.03;;;;;;;;;;363004;146;864910;-58
2021/07/23 04:11:49;;;;;;;6.59;2.19;;;;;;;;;;360099;147;857203;-59
2021/07/23 04:12:51;;;;;;;6.56;1.78;;;;;;;;;;364873;146;858068;-59
2021/07/23 04:13:53;;;;;;;6.96;2.32;;;;;;;;;;362572;146;857282;-62
2021/07/23 04:14:54;;;;;;;4.24;2.04;;;;;;;;;;361339;147;858713;-60
2021/07/23 04:15:56;;;;;;;6.49;2.14;;;;;;;;;;362501;147;857577;-60
2021/07/23 04:16:58;;;;;;;5.51;1.71;;;;;;;;;;359530;147;857162;-61
2021/07/23 04:18:00;;;;;;;6.48;1.84;;;;;;;;;;358552;150;857224;-61
2021/07/23 04:19:01;;;;;;;5.82;1.88;;;;;;;;;;358766;150;857188;-63
2021/07/23 04:20:04;;;;;;;3.89;1.94;;;;;;;;;;357503;148;857193;-64
2021/07/23 04:21:05;;;;;;;3.87;1.93;;;;;;;;;;356047;150;866671;-62
2021/07/23 04:22:07;;;;;;;7.71;1.75;;;;;;;;;;356504;151;857376;-60
2021/07/23 04:23:08;;;;;;;5.19;1.80;;;;;;;;;;356746;147;857179;-62
2021/07/23 04:24:11;;;;;;;4.99;1.78;;;;;;;;;;356724;147;857261;-62
2021/07/23 04:25:13;;;;;;;4.08;1.78;;;;;;;;;;357174;150;859119;-61
2021/07/23 04:26:16;;;;;;;2.68;1.69;;;;;;;;;;358399;150;859120;-59
2021/07/23 04:27:18;;;;;;;6.10;1.71;;;;;;;;;;359145;147;857352;-59
2021/07/23 04:28:19;;;;;;;3.20;1.75;;;;;;;;;;357608;149;866015;-60
2021/07/23 04:29:21;;;;;;;11.95;2.00;;;;;;;;;;360651;149;859176;-59
2021/07/23 04:30:23;;;;;;;6.86;1.81;;;;;;;;;;360701;147;858480;-59
2021/07/23 04:31:24;;;;;;;4.60;1.68;;;;;;;;;;358008;147;864956;-62
2021/07/23 04:32:26;;;;;;;3.51;2.02;;;;;;;;;;357572;150;866581;-62
2021/07/23 04:33:28;;;;;;;4.67;2.06;;;;;;;;;;359378;148;857196;-65
2021/07/23 04:34:29;;;;;;;6.62;2.24;;;;;;;;;;357293;148;857283;-62
2021/07/23 04:35:31;;;;;;;4.46;1.91;;;;;;;;;;357411;147;857239;-62
2021/07/23 04:36:39;;;;;;;4.16;2.01;;;;;;;;;;357670;149;857324;-62
2021/07/23 04:37:37;;;;;;;7.13;2.12;;;;;;;;;;357015;148;864908;-62
2021/07/23 04:38:39;;;;;;;4.01;1.99;;;;;;;;;;358049;150;859186;-60
2021/07/23 04:39:40;;;;;;;6.93;2.04;;;;;;;;;;359158;150;857333;-60
2021/07/23 04:40:43;;;;;;;6.09;1.87;;;;;;;;;;357805;148;857796;-65
2021/07/23 04:41:44;;;;;;;6.41;1.92;;;;;;;;;;357747;149;857163;-58
2021/07/23 04:42:46;;;;;;;4.12;1.91;;;;;;;;;;356894;150;857632;-62
2021/07/23 04:43:47;;;;;;;4.70;1.94;;;;;;;;;;358933;150;857177;-60
2021/07/23 04:44:49;;;;;;;9.64;2.49;;;;;;;;;;356497;147;857334;-60
2021/07/23 04:45:51;;;;;;;6.25;2.65;;;;;;;;;;356273;150;858261;-58
2021/07/23 04:46:53;;;;;;;4.83;2.02;;;;;;;;;;357203;150;857358;-59
2021/07/23 04:47:54;;;;;;;3.32;1.59;;;;;;;;;;355052;148;864880;-59
2021/07/23 04:48:56;;;;;;;5.25;1.68;;;;;;;;;;356566;149;866132;-59
2021/07/23 04:49:57;;;;;;;6.41;1.89;;;;;;;;;;359163;150;859371;-58
2021/07/23 04:51:04;;;;;;;3.73;1.65;;;;;;;;;;357569;148;859156;-60
2021/07/23 04:52:06;;;;;;;6.23;1.76;;;;;;;;;;355074;148;859543;-60
2021/07/23 04:53:07;;;;;;;2.55;1.66;;;;;;;;;;356708;149;857153;-59
2021/07/23 04:54:09;;;;;;;4.32;1.84;;;;;;;;;;352835;152;858720;-60
2021/07/23 04:55:12;;;;;;;5.46;1.72;;;;;;;;;;356957;148;857427;-59
2021/07/23 04:56:14;;;;;;;3.87;1.63;;;;;;;;;;354923;150;857372;-60
2021/07/23 04:57:18;;;;;;;3.79;1.56;;;;;;;;;;352793;150;857450;-60
2021/07/23 04:58:19;;;;;;;3.91;1.70;;;;;;;;;;355031;148;857561;-59
2021/07/23 04:59:21;;;;;;;6.28;1.81;;;;;;;;;;355866;147;857410;-59
2021/07/23 05:00:24;;;;;;;3.71;1.81;;;;;;;;;;351438;151;857168;-60
2021/07/23 05:01:25;;;;;;;4.76;1.61;;;;;;;;;;354207;151;857276;-61
2021/07/23 05:02:27;;;;;;;4.84;1.45;;;;;;;;;;349976;151;857290;-59
2021/07/23 05:03:30;;;;;;;3.00;1.54;;;;;;;;;;351226;150;857013;-59
2021/07/23 05:04:34;;;;;;;3.40;1.73;;;;;;;;;;350260;151;857377;-59
2021/07/23 05:05:35;;;;;;;6.62;1.57;;;;;;;;;;351081;150;857339;-62
2021/07/23 05:06:38;;;;;;;3.32;1.77;;;;;;;;;;349338;151;857216;-60
2021/07/23 05:07:40;;;;;;;4.21;1.48;;;;;;;;;;352335;151;857352;-59
2021/07/23 05:08:41;;;;;;;4.05;1.43;;;;;;;;;;351904;150;857233;-60
2021/07/23 05:09:43;;;;;;;3.59;1.63;;;;;;;;;;351744;151;857259;-60
2021/07/23 05:10:46;;;;;;;8.38;1.71;;;;;;;;;;350003;150;858822;-61
2021/07/23 05:11:48;;;;;;;7.86;1.60;;;;;;;;;;347541;152;859445;-61
2021/07/23 05:12:49;;;;;;;4.16;1.36;;;;;;;;;;350960;150;864846;-62
2021/07/23 05:13:51;;;;;;;4.20;1.59;;;;;;;;;;350544;150;857298;-57
2021/07/23 05:14:52;;;;;;;5.29;1.56;;;;;;;;;;351217;151;857289;-62
2021/07/23 05:15:54;;;;;;;3.77;1.54;;;;;;;;;;350853;150;857310;-59
2021/07/23 05:16:56;;;;;;;2.84;1.61;;;;;;;;;;350367;150;857248;-62
2021/07/23 05:17:57;;;;;;;4.13;1.84;;;;;;;;;;350851;153;864839;-59
2021/07/23 05:18:59;;;;;;;3.96;1.40;;;;;;;;;;352028;151;857247;-60
2021/07/23 05:20:01;;;;;;;4.73;1.21;;;;;;;;;;349874;152;864704;-59
2021/07/23 05:21:02;;;;;;;4.61;2.01;;;;;;;;;;352765;151;859073;-59
2021/07/23 05:22:04;;;;;;;5.10;1.58;;;;;;;;;;349026;152;864559;-60
2021/07/23 05:23:05;;;;;;;5.50;1.39;;;;;;;;;;349356;150;864724;-62
2021/07/23 05:24:07;;;;;;;6.03;1.36;;;;;;;;;;345927;154;857285;-60
2021/07/23 05:25:09;;;;;;;6.35;1.54;;;;;;;;;;345892;152;857365;-60
2021/07/23 05:26:11;;;;;;;2.20;1.51;;;;;;;;;;345471;153;857377;-60
2021/07/23 05:27:12;;;;;;;5.39;1.60;;;;;;;;;;340978;154;858671;-61
2021/07/23 05:28:14;;;;;;;3.22;1.49;;;;;;;;;;345052;154;857347;-60
2021/07/23 05:29:16;;;;;;;7.57;1.51;;;;;;;;;;349969;154;857487;-60
2021/07/23 05:30:18;;;;;;;3.51;1.61;;;;;;;;;;353122;150;857328;-60
2021/07/23 05:31:20;;;;;;;3.39;1.41;;;;;;;;;;348046;150;857893;-59
2021/07/23 05:32:22;;;;;;;3.82;1.26;;;;;;;;;;351287;151;865137;-58
2021/07/23 05:33:23;;;;;;;5.27;1.87;;;;;;;;;;343582;152;860215;-60
2021/07/23 05:34:25;;;;;;;4.24;1.39;;;;;;;;;;345671;152;858702;-59
2021/07/23 05:35:26;;;;;;;2.79;1.56;;;;;;;;;;349577;152;857222;-56
2021/07/23 05:36:30;;;;;;;5.09;1.55;;;;;;;;;;346353;154;857285;-61
2021/07/23 05:37:32;;;;;;;4.51;1.34;;;;;;;;;;340646;156;860576;-59
2021/07/23 05:38:33;;;;;;;5.01;1.59;;;;;;;;;;342621;153;857284;-59
2021/07/23 05:39:36;;;;;;;4.65;1.76;;;;;;;;;;344917;155;857279;-60
2021/07/23 05:40:40;;;;;;;4.49;1.71;;;;;;;;;;338194;156;857751;-59
2021/07/23 05:41:41;;;;;;;5.64;1.47;;;;;;;;;;344689;152;858367;-59
2021/07/23 05:42:43;;;;;;;3.41;1.44;;;;;;;;;;352032;152;857255;-59
2021/07/23 05:43:45;;;;;;;4.16;1.37;;;;;;;;;;350349;150;858918;-58
2021/07/23 05:44:46;;;;;;;4.60;1.60;;;;;;;;;;349923;150;865388;-58
2021/07/23 05:45:48;;;;;;;6.28;1.71;;;;;;;;;;348912;152;858143;-62
2021/07/23 05:46:51;;;;;;;3.27;1.43;;;;;;;;;;346880;151;858031;-57
2021/07/23 05:47:53;;;;;;;2.61;1.41;;;;;;;;;;350345;150;865391;-58
2021/07/23 05:48:54;;;;;;;5.16;1.69;;;;;;;;;;349329;150;864338;-58
2021/07/23 05:49:56;;;;;;;2.67;1.37;;;;;;;;;;353396;152;857204;-59
2021/07/23 05:50:59;;;;;;;4.03;1.57;;;;;;;;;;352724;152;857143;-58
2021/07/23 05:52:01;;;;;;;3.55;1.52;;;;;;;;;;350172;151;858206;-58
2021/07/23 05:53:03;;;;;;;2.39;1.58;;;;;;;;;;349318;151;857213;-58
2021/07/23 05:54:04;;;;;;;3.16;1.57;;;;;;;;;;353952;150;866387;-57
2021/07/23 05:55:06;;;;;;;4.81;1.34;;;;;;;;;;349830;151;858725;-56
2021/07/23 05:56:09;;;;;;;4.76;1.46;;;;;;;;;;352291;151;859930;-58
2021/07/23 05:57:11;;;;;;;3.50;1.42;;;;;;;;;;347908;152;857484;-58
2021/07/23 05:58:12;;;;;;;1.81;1.45;;;;;;;;;;349323;151;858718;-57
2021/07/23 05:59:14;;;;;;;3.04;1.41;;;;;;;;;;352199;150;857795;-58
2021/07/23 06:00:16;;;;;;;4.27;1.89;;;;;;;;;;352717;152;857566;-58
2021/07/23 06:01:18;;;;;;;3.75;1.48;;;;;;;;;;351213;151;858242;-58
2021/07/23 06:02:19;;;;;;;6.74;1.41;;;;;;;;;;350690;150;864733;-58
2021/07/23 06:03:21;;;;;;;6.14;1.66;;;;;;;;;;352110;152;857362;-57
2021/07/23 06:04:22;;;;;;;4.14;1.41;;;;;;;;;;351422;151;857277;-58
2021/07/23 06:05:24;;;;;;;3.36;1.75;;;;;;;;;;350434;150;857297;-58
2021/07/23 06:06:27;;;;;;;2.64;1.64;;;;;;;;;;349962;152;857266;-58